• Join FlightAware (Why Join?)
  • Login
  • US Flag 
06:04PM EDT


 

Airport Tracker/Info


-or-


 

Live Flight TrackerFlight Track Log ✈ N72PV ✈ 20-Sep-2013 ✈ KBLI - KVUO

Flight Track Log - Related Links

Times and Time Zones

All times are in EDT time to prevent confusion due to time zone crossing. See the N72PV flight status page for this flight to view local times or setup timezone preferences in your user account.

Time Position Orientation Groundspeed Altitude Reporting Facility
EDT Latitude Longitude Course Direction KTS MPH feet Rate Location/Type
02:48PM 48.7860 -122.5380 178° South 94 108 700  Level FlightAware
02:48PM 48.7760 -122.5370 176° South 111 128 900 780 Climbing FlightAware
02:48PM 48.7620 -122.5440 198° South 109 125 1,400 960 Climbing FlightAware
02:49PM 48.7540 -122.5540 219° Southwest 109 125 1,700 900 Climbing FlightAware
02:49PM 48.7450 -122.5630 213° Southwest 113 130 2,000 900 Climbing FlightAware
02:49PM 48.7370 -122.5720 217° Southwest 118 136 2,300 660 Climbing FlightAware
02:50PM 48.7260 -122.5820 211° Southwest 122 140 2,500 360 Climbing FlightAware
02:50PM 48.7220 -122.5840 198° South 121 139 2,500 480 Level FlightAware
02:50PM 48.7060 -122.5820 175° South 125 144 2,800 600 Climbing FlightAware
02:51PM 48.7000 -122.5820 180° South 125 144 2,900 360 Climbing FlightAware
02:51PM 48.6890 -122.5810 177° South 126 145 3,000 480 Climbing FlightAware
02:51PM 48.6710 -122.5810 180° South 127 146 3,300 420 Climbing FlightAware
02:52PM 48.6610 -122.5800 176° South 126 145 3,400 480 Climbing FlightAware
02:52PM 48.6450 -122.5850 192° South 125 144 3,700 540 Climbing FlightAware
02:53PM 48.6340 -122.5890 194° South 125 144 3,800 420 Climbing FlightAware
02:53PM 48.6220 -122.5930 192° South 127 146 4,000 600 Climbing FlightAware
02:53PM 48.6100 -122.5980 195° South 129 148 4,200 540 Climbing FlightAware
02:53PM 48.6030 -122.6010 196° South 129 148 4,300 420 Climbing FlightAware
02:54PM 48.5890 -122.6060 193° South 128 147 4,500 480 Climbing FlightAware
02:54PM 48.5770 -122.6100 192° South 127 146 4,700 540 Climbing FlightAware
02:54PM 48.5700 -122.6120 191° South 126 145 4,800 360 Climbing FlightAware
02:55PM 48.5580 -122.6160 192° South 126 145 4,900 360 Climbing FlightAware
02:55PM 48.5450 -122.6210 194° South 125 144 5,100 540 Climbing FlightAware
02:55PM 48.5330 -122.6240 189° South 125 144 5,300 540 Climbing FlightAware
02:56PM 48.5270 -122.6260 192° South 125 144 5,400 480 Climbing FlightAware
02:56PM 48.5130 -122.6310 193° South 126 145 5,600 480 Climbing FlightAware
02:56PM 48.5010 -122.6350 192° South 126 145 5,800 540 Climbing FlightAware
02:57PM 48.4890 -122.6390 192° South 127 146 6,000 420 Climbing FlightAware
02:57PM 48.4770 -122.6430 192° South 128 147 6,100 420 Climbing FlightAware
02:57PM 48.4660 -122.6470 194° South 127 146 6,300 600 Climbing FlightAware
02:58PM 48.4540 -122.6510 192° South 127 146 6,500 360 Climbing FlightAware
02:58PM 48.4420 -122.6550 192° South 126 145 6,600 420 Climbing FlightAware
02:58PM 48.4320 -122.6590 195° South 124 143 6,800 540 Climbing FlightAware
02:59PM 48.4165 -122.6640 192° South 125 144 7,000 420 Climbing FlightAware ADS-B
02:59PM 48.4079 -122.6670 193° South 124 143 7,100 240 Climbing FlightAware ADS-B
03:00PM 48.3830 -122.6750 192° South 132 152 7,300 180 Climbing FlightAware
03:00PM 48.3700 -122.6800 194° South 140 161 7,300  Level FlightAware
03:01PM 48.3590 -122.6840 194° South 145 167 7,300  Level FlightAware
03:01PM 48.3450 -122.6890 193° South 145 167 7,300  Level FlightAware
03:01PM 48.3325 -122.6930 192° South 143 165 7,300  Level FlightAware ADS-B
03:02PM 48.3130 -122.7000 193° South 75 86 7,300  Level FlightAware
03:02PM 48.2940 -122.7060 192° South 143 165 7,300  Level FlightAware
03:03PM 48.2790 -122.7120 195° South 142 163 7,300  Level FlightAware
03:03PM 48.2725 -122.7140 192° South 142 163 7,300  Level FlightAware ADS-B
03:03PM 48.2614 -122.7170 190° South 141 162 7,300  Level FlightAware ADS-B
03:03PM 48.2498 -122.7210 193° South 140 161 7,300  Level FlightAware ADS-B
03:04PM 48.2356 -122.7250 191° South 141 162 7,300  Level FlightAware ADS-B
03:04PM 48.2303 -122.7260 187° South 141 162 7,300  Level FlightAware ADS-B
03:04PM 48.2248 -122.7270 187° South 142 163 7,300  Level FlightAware ADS-B
03:04PM 48.2207 -122.7280 189° South 142 163 7,300  Level FlightAware ADS-B
03:04PM 48.2108 -122.7300 188° South 142 163 7,300  Level FlightAware ADS-B
03:05PM 48.2000 -122.7310 184° South 142 163 7,300  Level FlightAware ADS-B
03:05PM 48.1961 -122.7320 190° South 141 162 7,300  Level FlightAware ADS-B
03:05PM 48.1876 -122.7330 184° South 141 162 7,300  Level FlightAware ADS-B
03:05PM 48.1777 -122.7350 188° South 140 161 7,300  Level FlightAware ADS-B
03:05PM 48.1680 -122.7360 184° South 139 160 7,300  Level FlightAware ADS-B
03:06PM 48.1636 -122.7370 189° South 140 161 7,300  Level FlightAware ADS-B
03:06PM 48.1561 -122.7380 185° South 140 161 7,300  Level FlightAware ADS-B
03:06PM 48.1512 -122.7390 188° South 141 162 7,300  Level FlightAware ADS-B
03:06PM 48.1463 -122.7390 180° South 141 162 7,300  Level FlightAware ADS-B
03:06PM 48.1396 -122.7400 186° South 142 163 7,300  Level FlightAware ADS-B
03:06PM 48.1328 -122.7420 191° South 142 163 7,300  Level FlightAware ADS-B
03:07PM 48.1277 -122.7420 180° South 142 163 7,300  Level FlightAware ADS-B
03:07PM 48.1230 -122.7430 188° South 142 163 7,300  Level FlightAware ADS-B
03:07PM 48.1155 -122.7440 185° South 141 162 7,300  Level FlightAware ADS-B
03:07PM 48.1053 -122.7460 187° South 141 162 7,300  Level FlightAware ADS-B
03:07PM 48.0955 -122.7470 184° South 141 162 7,300  Level FlightAware ADS-B
03:08PM 48.0858 -122.7480 184° South 140 161 7,300  Level FlightAware ADS-B
03:08PM 48.0790 -122.7490 186° South 140 161 7,300  Level FlightAware ADS-B
03:08PM 48.0736 -122.7500 187° South 140 161 7,300  Level FlightAware ADS-B
03:08PM 48.0636 -122.7510 184° South 140 161 7,300  Level FlightAware ADS-B
03:08PM 48.0537 -122.7520 184° South 141 162 7,300  Level FlightAware ADS-B
03:09PM 48.0439 -122.7540 188° South 140 161 7,300  Level FlightAware ADS-B
03:09PM 48.0342 -122.7550 184° South 138 159 7,300  Level FlightAware ADS-B
03:09PM 48.0245 -122.7570 188° South 138 159 7,300  Level FlightAware ADS-B
03:09PM 48.0148 -122.7580 184° South 138 159 7,300  Level FlightAware ADS-B
03:10PM 48.0053 -122.7590 184° South 140 161 7,300  Level FlightAware ADS-B
03:10PM 47.9973 -122.7600 185° South 142 163 7,300  Level FlightAware ADS-B
03:10PM 47.9920 -122.7610 187° South 143 165 7,300  Level FlightAware ADS-B
03:10PM 47.9863 -122.7610 180° South 144 166 7,300  Level FlightAware ADS-B
03:10PM 47.9810 -122.7610 180° South 146 168 7,300  Level FlightAware ADS-B
03:10PM 47.9755 -122.7620 187° South 147 169 7,300  Level FlightAware ADS-B
03:11PM 47.9708 -122.7620 180° South 148 170 7,300  Level FlightAware ADS-B
03:11PM 47.9623 -122.7630 185° South 148 170 7,300  Level FlightAware ADS-B
03:11PM 47.9556 -122.7640 186° South 148 170 7,300  Level FlightAware ADS-B
03:11PM 47.9453 -122.7660 187° South 148 170 7,300  Level FlightAware ADS-B
03:11PM 47.9348 -122.7670 184° South 148 170 7,300  Level FlightAware ADS-B
03:12PM 47.9244 -122.7680 184° South 147 169 7,300  Level FlightAware ADS-B
03:12PM 47.9132 -122.7700 187° South 147 169 7,300  Level FlightAware ADS-B
03:13PM 47.8813 -122.7750 186° South 148 170 7,300  Level FlightAware ADS-B
03:13PM 47.8702 -122.7760 183° South 148 170 7,300  Level FlightAware ADS-B
03:13PM 47.8591 -122.7780 187° South 146 168 7,300  Level FlightAware ADS-B
03:13PM 47.8515 -122.7790 185° South 145 167 7,300  Level FlightAware ADS-B
03:14PM 47.8412 -122.7800 184° South 145 167 7,300  Level FlightAware ADS-B
03:14PM 47.8334 -122.7810 185° South 145 167 7,300  Level FlightAware ADS-B
03:14PM 47.8237 -122.7830 188° South 145 167 7,300  Level FlightAware ADS-B
03:14PM 47.8152 -122.7840 185° South 145 167 7,300  Level FlightAware ADS-B
03:15PM 47.8078 -122.7850 185° South 145 167 7,300  Level FlightAware ADS-B
03:15PM 47.7994 -122.7860 185° South 144 166 7,300  Level FlightAware ADS-B
03:15PM 47.7936 -122.7870 187° South 144 166 7,300  Level FlightAware ADS-B
03:15PM 47.7887 -122.7880 188° South 144 166 7,300  Level FlightAware ADS-B
03:15PM 47.7805 -122.7890 185° South 144 166 7,300  Level FlightAware ADS-B
03:15PM 47.7732 -122.7900 185° South 143 165 7,300  Level FlightAware ADS-B
03:16PM 47.7662 -122.7910 185° South 143 165 7,300  Level FlightAware ADS-B
03:16PM 47.7560 -122.7920 184° South 143 165 7,300  Level FlightAware ADS-B
03:16PM 47.7497 -122.7930 186° South 142 163 7,300  Level FlightAware ADS-B
03:16PM 47.7450 -122.7940 188° South 142 163 7,300  Level FlightAware ADS-B
03:16PM 47.7351 -122.7950 184° South 142 163 7,300  Level FlightAware ADS-B
03:17PM 47.7276 -122.7960 185° South 143 165 7,300  Level FlightAware ADS-B
03:17PM 47.7198 -122.7970 185° South 144 166 7,300  Level FlightAware ADS-B
03:17PM 47.7143 -122.7980 187° South 144 166 7,300  Level FlightAware ADS-B
03:17PM 47.7090 -122.7990 187° South 145 167 7,300  Level FlightAware ADS-B
03:18PM 47.6880 -122.8020 185° South 144 166 7,300  Level FlightAware ADS-B
03:18PM 47.6779 -122.8030 184° South 143 165 7,300  Level FlightAware ADS-B
03:18PM 47.6678 -122.8050 188° South 142 163 7,300  Level FlightAware ADS-B
03:18PM 47.6617 -122.8060 186° South 142 163 7,300  Level FlightAware ADS-B
03:18PM 47.6557 -122.8060 180° South 142 163 7,300  Level FlightAware ADS-B
03:19PM 47.6451 -122.8080 187° South 143 165 7,300  Level FlightAware ADS-B
03:19PM 47.6352 -122.8090 184° South 144 166 7,300  Level FlightAware ADS-B
03:19PM 47.6322 -122.8100 193° South 145 167 7,300  Level FlightAware ADS-B
03:19PM 47.6217 -122.8110 184° South 148 170 7,300  Level FlightAware ADS-B
03:20PM 47.6112 -122.8130 187° South 149 171 7,300  Level FlightAware ADS-B
03:20PM 47.6057 -122.8130 180° South 150 173 7,300  Level FlightAware ADS-B
03:20PM 47.5951 -122.8150 187° South 150 173 7,300  Level FlightAware ADS-B
03:20PM 47.5845 -122.8170 187° South 149 171 7,300  Level FlightAware ADS-B
03:20PM 47.5740 -122.8180 184° South 147 169 7,300  Level FlightAware ADS-B
03:21PM 47.5679 -122.8190 186° South 146 168 7,300  Level FlightAware ADS-B
03:21PM 47.5573 -122.8210 187° South 145 167 7,300  Level FlightAware ADS-B
03:21PM 47.5516 -122.8210 180° South 144 166 7,300  Level FlightAware ADS-B
03:21PM 47.5428 -122.8230 189° South 144 166 7,300  Level FlightAware ADS-B
03:21PM 47.5373 -122.8230 180° South 143 165 7,300  Level FlightAware ADS-B
03:22PM 47.5270 -122.8240 184° South 143 165 7,300  Level FlightAware ADS-B
03:22PM 47.5170 -122.8260 188° South 144 166 7,300  Level FlightAware ADS-B
03:22PM 47.5075 -122.8270 184° South 144 166 7,300  Level FlightAware ADS-B
03:22PM 47.5021 -122.8280 187° South 144 166 7,300  Level FlightAware ADS-B
03:22PM 47.4935 -122.8290 184° South 143 165 7,300  Level FlightAware ADS-B
03:23PM 47.4835 -122.8300 184° South 144 166 7,300  Level FlightAware ADS-B
03:23PM 47.4776 -122.8310 187° South 144 166 7,300  Level FlightAware ADS-B
03:23PM 47.4686 -122.8320 184° South 143 165 7,300  Level FlightAware ADS-B
03:23PM 47.4587 -122.8340 188° South 144 166 7,300  Level FlightAware ADS-B
03:24PM 47.4529 -122.8350 187° South 144 166 7,300  Level FlightAware ADS-B
03:24PM 47.4408 -122.8360 183° South 146 168 7,300  Level FlightAware ADS-B
03:24PM 47.4304 -122.8380 187° South 146 168 7,300  Level FlightAware ADS-B
03:24PM 47.4233 -122.8390 185° South 146 168 7,300  Level FlightAware ADS-B
03:24PM 47.4182 -122.8390 180° South 146 168 7,300  Level FlightAware ADS-B
03:25PM 47.4080 -122.8410 188° South 146 168 7,300  Level FlightAware ADS-B
03:25PM 47.3981 -122.8420 184° South 145 167 7,300  Level FlightAware ADS-B
03:25PM 47.3880 -122.8430 184° South 144 166 7,300  Level FlightAware ADS-B
03:25PM 47.3828 -122.8440 187° South 144 166 7,300  Level FlightAware ADS-B
03:25PM 47.3775 -122.8450 187° South 143 165 7,300  Level FlightAware ADS-B
03:26PM 47.3679 -122.8460 184° South 143 165 7,300  Level FlightAware ADS-B
03:26PM 47.3622 -122.8470 187° South 143 165 7,300  Level FlightAware ADS-B
03:26PM 47.3550 -122.8480 185° South 143 165 7,300  Level FlightAware ADS-B
03:26PM 47.3487 -122.8490 186° South 143 165 7,300  Level FlightAware ADS-B
03:26PM 47.3387 -122.8510 188° South 143 165 7,300  Level FlightAware ADS-B
03:26PM 47.3348 -122.8510 180° South 143 165 7,300  Level FlightAware ADS-B
03:27PM 47.3285 -122.8520 186° South 143 165 7,300  Level FlightAware ADS-B
03:27PM 47.3200 -122.8540 189° South 143 165 7,300  Level FlightAware ADS-B
03:27PM 47.3149 -122.8540 180° South 143 165 7,300  Level FlightAware ADS-B
03:27PM 47.3104 -122.8550 189° South 143 165 7,300  Level FlightAware ADS-B
03:27PM 47.3033 -122.8560 185° South 143 165 7,300  Level FlightAware ADS-B
03:27PM 47.2932 -122.8580 188° South 142 163 7,300  Level FlightAware ADS-B
03:28PM 47.2832 -122.8600 188° South 142 163 7,300  Level FlightAware ADS-B
03:28PM 47.2724 -122.8610 184° South 142 163 7,300  Level FlightAware ADS-B
03:28PM 47.2619 -122.8630 187° South 142 163 7,300  Level FlightAware ADS-B
03:29PM 47.2507 -122.8650 187° South 143 165 7,300  Level FlightAware ADS-B
03:29PM 47.2398 -122.8670 187° South 144 166 7,300  Level FlightAware ADS-B
03:29PM 47.2353 -122.8670 180° South 145 167 7,300  Level FlightAware ADS-B
03:29PM 47.2250 -122.8690 188° South 146 168 7,300  Level FlightAware ADS-B
03:29PM 47.2148 -122.8700 184° South 146 168 7,300  Level FlightAware ADS-B
03:30PM 47.2077 -122.8710 185° South 145 167 7,300  Level FlightAware ADS-B
03:30PM 47.1982 -122.8730 188° South 143 165 7,300  Level FlightAware ADS-B
03:30PM 47.1882 -122.8740 184° South 142 163 7,300  Level FlightAware ADS-B
03:30PM 47.1783 -122.8750 184° South 142 163 7,300  Level FlightAware ADS-B
03:31PM 47.1687 -122.8770 188° South 142 163 7,300  Level FlightAware ADS-B
03:31PM 47.1632 -122.8770 180° South 143 165 7,300  Level FlightAware ADS-B
03:31PM 47.1540 -122.8790 188° South 143 165 7,300  Level FlightAware ADS-B
03:31PM 47.1471 -122.8800 186° South 143 165 7,300  Level FlightAware ADS-B
03:31PM 47.1351 -122.8810 183° South 143 165 7,300  Level FlightAware ADS-B
03:32PM 47.1251 -122.8830 188° South 142 163 7,300  Level FlightAware ADS-B
03:32PM 47.1186 -122.8830 180° South 142 163 7,300  Level FlightAware ADS-B
03:32PM 47.1113 -122.8840 185° South 142 163 7,300  Level FlightAware ADS-B
03:32PM 47.1072 -122.8850 189° South 142 163 7,300  Level FlightAware ADS-B
03:32PM 47.1012 -122.8860 186° South 142 163 7,300  Level FlightAware ADS-B
03:33PM 47.0909 -122.8870 184° South 143 165 7,300  Level FlightAware ADS-B
03:33PM 47.0839 -122.8880 186° South 144 166 7,300  Level FlightAware ADS-B
03:33PM 47.0738 -122.8900 188° South 144 166 7,300  Level FlightAware ADS-B
03:33PM 47.0691 -122.8900 180° South 145 167 7,300  Level FlightAware ADS-B
03:33PM 47.0591 -122.8910 184° South 144 166 7,300  Level FlightAware ADS-B
03:34PM 47.0503 -122.8930 189° South 143 165 7,300  Level FlightAware ADS-B
03:34PM 47.0432 -122.8940 185° South 143 165 7,300  Level FlightAware ADS-B
03:34PM 47.0357 -122.8950 185° South 142 163 7,300  Level FlightAware ADS-B
03:34PM 47.0294 -122.8950 180° South 143 165 7,300  Level FlightAware ADS-B
03:34PM 47.0248 -122.8960 188° South 143 165 7,300  Level FlightAware ADS-B
03:35PM 47.0148 -122.8980 188° South 144 166 7,300  Level FlightAware ADS-B
03:35PM 47.0055 -122.8990 184° South 144 166 7,300  Level FlightAware ADS-B
03:35PM 46.9969 -122.9000 185° South 143 165 7,300  Level FlightAware ADS-B
03:35PM 46.9909 -122.9010 186° South 142 163 7,300  Level FlightAware ADS-B
03:35PM 46.9861 -122.9010 180° South 140 161 7,300  Level FlightAware ADS-B
03:35PM 46.9790 -122.9020 185° South 140 161 7,300  Level FlightAware ADS-B
03:36PM 46.9717 -122.9030 185° South 140 161 7,300  Level FlightAware ADS-B
03:36PM 46.9695 -122.9030 180° South 140 161 7,300  Level FlightAware ADS-B
03:36PM 46.9675 -122.9030 180° South 139 160 7,300  Level FlightAware ADS-B
03:36PM 46.9645 -122.9020 167° South 140 161 7,300  Level FlightAware ADS-B
03:36PM 46.9597 -122.9010 172° South 142 163 7,300  Level FlightAware ADS-B
03:36PM 46.9543 -122.8990 166° South 143 165 7,300  Level FlightAware ADS-B
03:36PM 46.9473 -122.8970 169° South 143 165 7,300  Level FlightAware ADS-B
03:37PM 46.9386 -122.8950 171° South 144 166 7,300  Level FlightAware ADS-B
03:37PM 46.9306 -122.8920 166° South 143 165 7,300  Level FlightAware ADS-B
03:37PM 46.9251 -122.8910 173° South 143 165 7,300  Level FlightAware ADS-B
03:37PM 46.9206 -122.8890 163° South 142 163 7,300  Level FlightAware ADS-B
03:37PM 46.9130 -122.8870 170° South 141 162 7,300  Level FlightAware ADS-B
03:37PM 46.9075 -122.8860 173° South 141 162 7,300  Level FlightAware ADS-B
03:38PM 46.8978 -122.8830 168° South 140 161 7,300  Level FlightAware ADS-B
03:38PM 46.8928 -122.8810 165° South 142 163 7,300  Level FlightAware ADS-B
03:38PM 46.8828 -122.8790 172° South 143 165 7,300  Level FlightAware ADS-B
03:38PM 46.8737 -122.8760 167° South 143 165 7,300  Level FlightAware ADS-B
03:38PM 46.8647 -122.8740 171° South 142 163 7,300  Level FlightAware ADS-B
03:39PM 46.8564 -122.8710 166° South 141 162 7,300  Level FlightAware ADS-B
03:39PM 46.8465 -122.8690 172° South 140 161 7,300  Level FlightAware ADS-B
03:39PM 46.8351 -122.8660 170° South 140 161 7,300  Level FlightAware ADS-B
03:40PM 46.8205 -122.8620 169° South 142 163 7,300  Level FlightAware ADS-B
03:40PM 46.8098 -122.8590 169° South 142 163 7,300  Level FlightAware ADS-B
03:40PM 46.8001 -122.8560 168° South 140 161 7,300  Level FlightAware ADS-B
03:40PM 46.7926 -122.8540 170° South 140 161 7,300  Level FlightAware ADS-B
03:40PM 46.7858 -122.8530 174° South 140 161 7,300  Level FlightAware ADS-B
03:41PM 46.7808 -122.8510 165° South 141 162 7,300  Level FlightAware ADS-B
03:41PM 46.7769 -122.8500 170° South 141 162 7,300  Level FlightAware ADS-B
03:41PM 46.7671 -122.8480 172° South 143 165 7,300  Level FlightAware ADS-B
03:41PM 46.7573 -122.8450 168° South 145 167 7,300  Level FlightAware ADS-B
03:41PM 46.7504 -122.8440 174° South 144 166 7,300  Level FlightAware ADS-B
03:42PM 46.7431 -122.8420 169° South 143 165 7,300  Level FlightAware ADS-B
03:42PM 46.7332 -122.8390 168° South 141 162 7,300  Level FlightAware ADS-B
03:42PM 46.7235 -122.8370 172° South 141 162 7,300  Level FlightAware ADS-B
03:42PM 46.7134 -122.8340 168° South 140 161 7,300  Level FlightAware ADS-B
03:42PM 46.7083 -122.8330 172° South 141 162 7,300  Level FlightAware ADS-B
03:43PM 46.6984 -122.8300 168° South 142 163 7,300  Level FlightAware ADS-B
03:46PM 46.5880 -122.8020 170° South 144 166 7,300  Level FlightAware ADS-B
03:46PM 46.5780 -122.8000 172° South 141 162 7,300  Level FlightAware ADS-B
03:46PM 46.5683 -122.7970 168° South 139 160 7,300  Level FlightAware ADS-B
03:46PM 46.5639 -122.7960 171° South 139 160 7,300  Level FlightAware ADS-B
03:46PM 46.5548 -122.7940 171° South 140 161 7,300  Level FlightAware ADS-B
03:47PM 46.5469 -122.7920 170° South 143 165 7,300  Level FlightAware ADS-B
03:47PM 46.5368 -122.7890 168° South 146 168 7,300  Level FlightAware ADS-B
03:47PM 46.5254 -122.7860 170° South 148 170 7,300  Level FlightAware ADS-B
03:47PM 46.5152 -122.7840 172° South 147 169 7,300  Level FlightAware ADS-B
03:48PM 46.5098 -122.7820 166° South 146 168 7,300  Level FlightAware ADS-B
03:48PM 46.4998 -122.7800 172° South 142 163 7,300  Level FlightAware ADS-B
03:48PM 46.4899 -122.7770 168° South 138 159 7,300  Level FlightAware ADS-B
03:48PM 46.4822 -122.7750 170° South 138 159 7,300  Level FlightAware ADS-B
03:48PM 46.4727 -122.7730 172° South 140 161 7,300  Level FlightAware ADS-B
03:49PM 46.4689 -122.7720 170° South 142 163 7,300  Level FlightAware ADS-B
03:49PM 46.4595 -122.7690 168° South 144 166 7,300  Level FlightAware ADS-B
03:49PM 46.4544 -122.7680 172° South 144 166 7,300  Level FlightAware ADS-B
03:49PM 46.4444 -122.7650 168° South 145 167 7,300  Level FlightAware ADS-B
03:49PM 46.4350 -122.7630 172° South 147 169 7,300  Level FlightAware ADS-B
03:50PM 46.4258 -122.7600 167° South 146 168 7,300  Level FlightAware ADS-B
03:50PM 46.4202 -122.7590 173° South 146 168 7,300  Level FlightAware ADS-B
03:50PM 46.4130 -122.7570 169° South 146 168 7,300  Level FlightAware ADS-B
03:50PM 46.4076 -122.7560 173° South 145 167 7,300  Level FlightAware ADS-B
03:50PM 46.3996 -122.7540 170° South 143 165 7,300  Level FlightAware ADS-B
03:51PM 46.3913 -122.7510 166° South 142 163 7,300  Level FlightAware ADS-B
03:51PM 46.3867 -122.7500 171° South 141 162 7,300  Level FlightAware ADS-B
03:51PM 46.3769 -122.7480 172° South 141 162 7,300  Level FlightAware ADS-B
03:51PM 46.3681 -122.7460 171° South 141 162 7,300  Level FlightAware ADS-B
03:51PM 46.3640 -122.7450 170° South 141 162 7,300  Level FlightAware ADS-B
03:51PM 46.3574 -122.7430 168° South 141 162 7,300  Level FlightAware ADS-B
03:52PM 46.3543 -122.7420 167° South 140 161 7,300  Level FlightAware ADS-B
03:52PM 46.3445 -122.7410 176° South 140 161 7,300  Level FlightAware ADS-B
03:52PM 46.3379 -122.7410 180° South 142 163 7,300 -240 Level FlightAware ADS-B
03:52PM 46.3278 -122.7400 176° South 149 171 7,200 -540 Descending FlightAware ADS-B
03:52PM 46.3222 -122.7400 180° South 152 175 7,100 -420 Descending FlightAware ADS-B
03:52PM 46.3163 -122.7410 187° South 154 177 7,100 -540 Level FlightAware ADS-B
03:53PM 46.3059 -122.7410 180° South 156 180 6,900 -540 Descending FlightAware ADS-B
03:53PM 46.3002 -122.7420 187° South 155 178 6,900 -300 Level FlightAware ADS-B
03:53PM 46.2889 -122.7430 183° South 155 178 6,800 -480 Descending FlightAware ADS-B
03:53PM 46.2813 -122.7430 180° South 154 177 6,700 -600 Descending FlightAware ADS-B
03:53PM 46.2743 -122.7440 186° South 153 176 6,600 -600 Descending FlightAware ADS-B
03:54PM 46.2666 -122.7450 185° South 154 177 6,500 -360 Descending FlightAware ADS-B
03:54PM 46.2609 -122.7450 180° South 155 178 6,500 -300 Level FlightAware ADS-B
03:54PM 46.2496 -122.7460 184° South 158 182 6,400 -600 Descending FlightAware ADS-B
03:54PM 46.2380 -122.7460 180° South 159 183 6,200 -600 Descending FlightAware ADS-B
03:55PM 46.2269 -122.7470 184° South 157 181 6,100 -480 Descending FlightAware ADS-B
03:55PM 46.2198 -122.7480 186° South 155 178 6,000 -300 Descending FlightAware ADS-B
03:55PM 46.2116 -122.7480 180° South 153 176 6,000 -300 Level FlightAware ADS-B
03:55PM 46.2058 -122.7480 180° South 152 175 5,900 -300 Descending FlightAware ADS-B
03:55PM 46.1970 -122.7490 184° South 154 177 5,900  Level FlightAware ADS-B
03:58PM 46.1194 -122.6928 153° Southeast  Level FlightAware Approximate
03:59PM 46.0805 -122.6667 180° South  Level FlightAware Approximate
04:00PM 46.0438 -122.6552 161° South  Level FlightAware Approximate
04:01PM 46.0068 -122.6434 170° South  Level FlightAware Approximate
04:02PM 45.9694 -122.6340 170° South  Level FlightAware Approximate
04:03PM 45.9319 -122.6246 170° South  Level FlightAware Approximate
04:04PM 45.8944 -122.6155 172° South  Level FlightAware Approximate
04:05PM 45.8568 -122.6080 172° South  Level FlightAware Approximate
04:06PM 45.8191 -122.6005 172° South  Level FlightAware Approximate
04:07PM 45.7815 -122.5929 172° South  Level FlightAware Approximate
04:08PM 45.7439 -122.5854 172° South  Level FlightAware Approximate
04:09PM 45.7085 -122.5999 205° Southwest  Level FlightAware Approximate
04:10PM 45.6737 -122.6215 199° South  Level FlightAware Approximate
04:11PM 45.6378 -122.6395 199° South  Level FlightAware Approximate
04:12PM 45.6167 -122.6500 199° South  Level FlightAware Approximate
04:13PM 45.6204 -122.6565 199° South  Level Estimated
04:14PM 45.6167 -122.6500 199° South  Level FlightAware Approximate
04:15PM 45.6204 -122.6565 199° South  Level Estimated
04:16PM 45.6167 -122.6500 199° South  Level FlightAware Approximate
04:17PM 45.6204 -122.6565 199° South  Level Estimated
04:18PM 45.6167 -122.6500 199° South  Level FlightAware Approximate
04:19PM 45.6204 -122.6565 199° South  Level Estimated
04:20PM 45.6167 -122.6500 199° South  Level FlightAware Approximate
04:21PM 45.6204 -122.6565 199° South  Level Estimated
04:22PM 45.6167 -122.6500 199° South  Level FlightAware Approximate
04:23PM 45.6204 -122.6565 199° South  Level Estimated
04:24PM 45.6167 -122.6500 199° South  Level FlightAware Approximate
04:25PM 45.6204 -122.6565 199° South  Level Estimated
04:26PM 45.6167 -122.6500 199° South  Level FlightAware Approximate
04:27PM 45.6204 -122.6565 199° South  Level Estimated
04:28PM 45.6167 -122.6500 199° South  Level FlightAware Approximate
04:29PM 45.6204 -122.6565 199° South  Level Estimated